Time;durP1;ratioP1;P1;durP2;ratioP2;P2;SDS_P1;SDS_P2;PMS_P1;PMS_P2;Temp;Humidity;BMP_temperature;BMP_pressure;BME280_temperature;BME280_humidity;BME280_pressure;Samples;Min_cycle;Max_cycle;Signal;HPM_P1;HPM_P2
2023/02/11 00:01:41;;;;;;;15.82;9.02;;;0.60;99.90;;;;;;5001164;28;20064;-71
2023/02/11 00:04:19;;;;;;;29.65;11.48;;;0.60;99.90;;;;;;5019019;28;20038;-71
2023/02/11 00:06:54;;;;;;;21.90;9.63;;;0.60;99.90;;;;;;5033034;28;20044;-70
2023/02/11 00:10:02;;;;;;;16.02;8.18;;;0.60;99.90;;;;;;5015409;28;20022;-71
2023/02/11 00:12:37;;;;;;;21.35;9.50;;;0.60;99.90;;;;;;4935685;29;20091;-71
2023/02/11 00:18:12;;;;;;;19.45;9.48;;;0.60;99.90;;;;;;4925065;29;20043;-71
2023/02/11 00:21:23;;;;;;;23.48;8.43;;;0.60;99.90;;;;;;4938748;29;20043;-71
2023/02/11 00:24:21;;;;;;;19.83;9.73;;;0.60;99.90;;;;;;4936928;29;20395;-71
2023/02/11 00:27:11;;;;;;;25.45;10.68;;;0.60;99.90;;;;;;4888246;29;20048;-71
2023/02/11 00:30:01;;;;;;;27.70;10.15;;;0.60;99.90;;;;;;4905787;29;20484;-70
2023/02/11 00:32:45;;;;;;;19.83;9.93;;;0.70;99.90;;;;;;4854506;29;20132;-71
2023/02/11 00:35:14;;;;;;;25.40;10.05;;;0.70;99.90;;;;;;4875477;29;20053;-71
2023/02/11 00:37:40;;;;;;;16.75;9.25;;;0.80;99.90;;;;;;4876810;29;20041;-70
2023/02/11 00:40:11;;;;;;;22.88;9.38;;;0.70;99.90;;;;;;4875548;29;20040;-70
2023/02/11 00:42:37;;;;;;;20.92;11.50;;;0.80;99.90;;;;;;4861492;29;20524;-71
2023/02/11 00:45:12;;;;;;;15.75;8.73;;;0.80;99.90;;;;;;4868150;29;20086;-70
2023/02/11 00:47:50;;;;;;;14.75;8.48;;;0.80;99.90;;;;;;4907031;29;20036;-71
2023/02/11 00:50:46;;;;;;;14.40;7.43;;;0.80;99.90;;;;;;4895962;29;20060;-70
2023/02/11 00:53:38;;;;;;;24.90;11.25;;;0.80;99.90;;;;;;4913608;29;20067;-71
2023/02/11 00:56:10;;;;;;;33.03;7.90;;;0.80;99.90;;;;;;4906268;29;20130;-70
2023/02/11 00:58:52;;;;;;;16.83;9.68;;;0.80;99.90;;;;;;4915515;29;20036;-70
2023/02/11 01:01:24;;;;;;;19.30;9.98;;;0.70;99.90;;;;;;4917758;29;21071;-70
2023/02/11 01:04:36;;;;;;;22.58;8.95;;;0.70;99.90;;;;;;4935781;28;20130;-71
2023/02/11 01:07:02;;;;;;;18.85;8.25;;;0.70;99.90;;;;;;4942006;28;20043;-70
2023/02/11 01:09:57;;;;;;;16.27;9.05;;;0.70;99.90;;;;;;4976159;28;20462;-70
2023/02/11 01:13:37;;;;;;;26.08;11.88;;;0.70;99.90;;;;;;5008591;28;20049;-71
2023/02/11 01:16:21;;;;;;;28.45;9.10;;;0.70;99.90;;;;;;4927778;29;20078;-71
2023/02/11 01:18:59;;;;;;;18.83;10.30;;;0.70;99.90;;;;;;4940557;29;20035;-71
2023/02/11 01:21:25;;;;;;;20.20;9.30;;;0.70;99.90;;;;;;4938289;29;20053;-70
2023/02/11 01:24:17;;;;;;;24.35;11.05;;;0.60;99.90;;;;;;4941301;28;20063;-72
2023/02/11 01:26:42;;;;;;;21.67;10.40;;;0.70;99.90;;;;;;4906127;29;20168;-72
2023/02/11 01:29:24;;;;;;;17.63;8.95;;;0.70;99.90;;;;;;4939307;29;20129;-72
2023/02/11 01:32:05;;;;;;;;;;;0.70;99.90;;;;;;4940115;29;20146;-71
2023/02/11 01:34:48;;;;;;;15.60;9.45;;;0.70;99.90;;;;;;5011218;28;20147;-71
2023/02/11 01:38:13;;;;;;;17.20;8.77;;;0.70;99.90;;;;;;5001305;28;20056;-71
2023/02/11 01:40:39;;;;;;;23.25;11.68;;;0.70;99.90;;;;;;4921270;29;20133;-71
2023/02/11 01:46:40;;;;;;;20.67;10.35;;;0.60;99.90;;;;;;5008959;28;20049;-72
2023/02/11 01:52:41;;;;;;;23.17;10.75;;;0.70;99.90;;;;;;4948361;28;20042;-71
2023/02/11 01:58:44;;;;;;;17.95;8.48;;;0.70;99.90;;;;;;5010944;28;20056;-71
2023/02/11 02:01:30;;;;;;;28.67;12.32;;;0.60;99.90;;;;;;4996764;28;20030;-71
2023/02/11 02:04:17;;;;;;;13.75;7.57;;;0.70;99.90;;;;;;5008858;28;20026;-72
2023/02/11 02:06:57;;;;;;;27.20;8.00;;;0.70;99.90;;;;;;4992312;28;20609;-71
2023/02/11 02:10:13;;;;;;;;;;;;;;;;;;;;;
2023/02/11 02:12:41;;;;;;;14.70;7.50;;;0.70;99.90;;;;;;5009458;28;20457;-72
2023/02/11 02:15:57;;;;;;;37.03;10.90;;;0.70;99.90;;;;;;4990495;28;20022;-71
2023/02/11 02:19:15;;;;;;;18.90;8.82;;;0.70;99.90;;;;;;5004960;28;20050;-71
2023/02/11 02:22:36;;;;;;;22.08;9.65;;;0.80;99.90;;;;;;4972282;28;20395;-71
2023/02/11 02:26:15;;;;;;;22.35;11.57;;;0.80;99.90;;;;;;5009163;28;20038;-71
2023/02/11 02:33:45;;;;;;;20.88;8.20;;;0.70;99.90;;;;;;4889941;29;20552;-71
2023/02/11 02:37:10;;;;;;;11.52;7.60;;;0.70;99.90;;;;;;4955265;28;20506;-70
2023/02/11 02:39:39;;;;;;;18.00;9.07;;;0.80;99.90;;;;;;4928028;28;20079;-70
2023/02/11 02:42:18;;;;;;;17.83;8.32;;;0.80;99.90;;;;;;4939080;28;20117;-69
2023/02/11 02:44:52;;;;;;;21.80;8.93;;;0.80;99.90;;;;;;4956283;28;20034;-70
2023/02/11 02:47:18;;;;;;;15.27;7.28;;;0.80;99.90;;;;;;4941586;28;20034;-71
2023/02/11 02:50:53;;;;;;;29.13;9.80;;;0.80;99.90;;;;;;4972474;28;20424;-70
2023/02/11 02:54:26;;;;;;;29.33;9.75;;;0.80;99.90;;;;;;4939284;29;20070;-70
2023/02/11 03:01:27;;;;;;;19.40;9.43;;;0.80;99.90;;;;;;4924837;29;20122;-70
2023/02/11 03:04:36;;;;;;;18.20;9.30;;;0.70;99.90;;;;;;4937674;29;20051;-70
2023/02/11 03:07:56;;;;;;;22.15;10.00;;;0.70;99.90;;;;;;4898584;29;20122;-71
2023/02/11 03:10:54;;;;;;;17.80;9.10;;;0.70;99.90;;;;;;4909390;29;20046;-71
2023/02/11 03:13:34;;;;;;;16.05;7.88;;;0.70;99.90;;;;;;4883420;29;20072;-70
2023/02/11 03:17:03;;;;;;;22.35;11.68;;;0.70;99.90;;;;;;4882051;29;20047;-70
2023/02/11 03:20:03;;;;;;;19.75;9.65;;;0.70;99.90;;;;;;4857057;29;20050;-70
2023/02/11 03:29:32;;;;;;;18.40;8.10;;;0.80;99.90;;;;;;4838679;29;20060;-71
2023/02/11 03:32:33;;;;;;;19.85;8.45;;;0.80;99.90;;;;;;4806188;29;20042;-71
2023/02/11 03:39:39;;;;;;;13.63;7.28;;;0.80;99.90;;;;;;4792640;29;20131;-71
2023/02/11 03:42:16;;;;;;;24.27;8.10;;;0.80;99.90;;;;;;4785634;29;20848;-71
2023/02/11 03:45:17;;;;;;;22.85;8.40;;;0.80;99.90;;;;;;4787771;29;20760;-71
2023/02/11 03:50:58;;;;;;;30.88;11.55;;;0.90;99.90;;;;;;4823209;29;20550;-71
2023/02/11 03:53:24;;;;;;;19.40;9.80;;;0.90;99.90;;;;;;4826727;29;20129;-71
2023/02/11 03:56:37;;;;;;;23.90;9.50;;;0.90;99.90;;;;;;4882993;29;20080;-71
2023/02/11 04:04:14;;;;;;;20.85;10.73;;;0.90;99.90;;;;;;4842535;29;20115;-71
2023/02/11 04:07:11;;;;;;;18.92;7.65;;;0.90;99.90;;;;;;4773773;29;20623;-71
2023/02/11 04:09:37;;;;;;;16.48;8.52;;;0.90;99.90;;;;;;4772347;30;20250;-71
2023/02/11 04:12:03;;;;;;;22.00;10.50;;;0.90;99.90;;;;;;4774058;30;20054;-71
2023/02/11 04:14:38;;;;;;;20.30;9.48;;;0.90;99.90;;;;;;4794431;29;20167;-71
2023/02/11 04:17:19;;;;;;;18.58;10.15;;;0.90;99.90;;;;;;4809253;29;20046;-70
2023/02/11 04:19:47;;;;;;;12.57;8.43;;;0.90;99.90;;;;;;4809680;29;20042;-71
2023/02/11 04:26:14;;;;;;;25.05;9.85;;;0.90;99.90;;;;;;4741600;29;20051;-71
2023/02/11 04:29:35;;;;;;;;;;;;;;;;;;;;;
2023/02/11 04:32:25;;;;;;;25.43;10.43;;;1.00;99.90;;;;;;4816659;29;20131;-71
2023/02/11 04:34:54;;;;;;;16.88;8.57;;;0.90;99.90;;;;;;4821376;29;20060;-71
2023/02/11 04:38:10;;;;;;;21.40;9.52;;;0.90;99.90;;;;;;4827014;29;20437;-71
2023/02/11 04:40:36;;;;;;;22.30;9.68;;;0.90;99.90;;;;;;4792824;29;20059;-71
2023/02/11 04:43:02;;;;;;;23.08;9.55;;;0.80;99.90;;;;;;4946109;28;20043;-71
2023/02/11 04:45:43;;;;;;;20.40;8.75;;;0.90;99.90;;;;;;4950622;29;20171;-70
2023/02/11 04:48:12;;;;;;;17.05;10.18;;;0.80;99.90;;;;;;4960516;28;20074;-71
2023/02/11 04:50:37;;;;;;;19.88;8.95;;;0.80;99.90;;;;;;4980908;23;20115;-76
2023/02/11 04:53:16;;;;;;;21.40;8.88;;;0.80;99.90;;;;;;5056405;28;20112;-76
2023/02/11 04:56:04;;;;;;;17.70;10.27;;;0.70;99.90;;;;;;5047657;28;20108;-76
2023/02/11 04:58:56;;;;;;;21.50;9.23;;;0.70;99.90;;;;;;5053822;28;20041;-76
2023/02/11 05:01:22;;;;;;;18.83;9.57;;;0.70;99.90;;;;;;4959806;28;20046;-76
2023/02/11 05:04:00;;;;;;;20.55;9.25;;;0.70;99.90;;;;;;4950999;29;20050;-76
2023/02/11 05:07:08;;;;;;;20.20;9.98;;;0.70;99.90;;;;;;4930774;29;20039;-76
2023/02/11 05:09:37;;;;;;;14.40;8.73;;;0.60;99.90;;;;;;4945515;29;20052;-76
2023/02/11 05:12:48;;;;;;;18.77;9.30;;;0.60;99.90;;;;;;4950674;28;20087;-76
2023/02/11 05:15:23;;;;;;;25.00;8.80;;;0.50;99.90;;;;;;4890965;29;20119;-76
2023/02/11 05:18:27;;;;;;;21.25;9.13;;;0.50;99.90;;;;;;4934266;28;20036;-75
2023/02/11 05:24:36;;;;;;;19.30;9.52;;;0.50;99.90;;;;;;4915615;29;20039;-75
2023/02/11 05:27:05;;;;;;;20.60;8.38;;;0.40;99.90;;;;;;4875613;29;20067;-76
2023/02/11 05:30:16;;;;;;;24.67;10.40;;;0.40;99.90;;;;;;4875360;29;20037;-76
2023/02/11 05:33:02;;;;;;;16.58;8.23;;;0.40;99.90;;;;;;4820648;29;20119;-76
2023/02/11 05:35:46;;;;;;;25.45;11.13;;;0.40;99.90;;;;;;4817750;29;20201;-76
2023/02/11 05:38:12;;;;;;;19.20;10.15;;;0.40;99.90;;;;;;4856665;29;20108;-76
2023/02/11 05:40:39;;;;;;;15.90;9.27;;;0.30;99.90;;;;;;4901780;29;20131;-75
2023/02/11 05:43:55;;;;;;;20.77;7.60;;;0.30;99.90;;;;;;4901847;29;20099;-75
2023/02/11 05:46:30;;;;;;;17.40;8.30;;;0.30;99.90;;;;;;4798794;29;20541;-75
2023/02/11 05:49:55;;;;;;;18.27;8.15;;;0.40;99.90;;;;;;4838424;29;20050;-75
2023/02/11 05:52:24;;;;;;;18.83;10.45;;;0.40;99.90;;;;;;4812548;29;20069;-75
2023/02/11 05:55:15;;;;;;;20.13;9.13;;;0.40;99.90;;;;;;4818576;29;20047;-75
2023/02/11 05:58:21;;;;;;;23.77;9.30;;;0.50;99.90;;;;;;4815183;29;20151;-75
2023/02/11 06:00:47;;;;;;;15.65;7.90;;;0.60;99.90;;;;;;4805584;29;20091;-75
2023/02/11 06:03:54;;;;;;;13.02;8.25;;;0.60;99.90;;;;;;4841125;29;20461;-75
2023/02/11 06:06:24;;;;;;;20.70;9.60;;;0.60;99.90;;;;;;4840877;29;20033;-75
2023/02/11 06:09:38;;;;;;;24.70;7.82;;;0.70;99.90;;;;;;4898057;29;20060;-75
2023/02/11 06:12:09;;;;;;;19.08;10.85;;;0.80;99.90;;;;;;4835055;29;20091;-75
2023/02/11 06:14:47;;;;;;;10.77;7.53;;;0.70;99.90;;;;;;4822219;29;20042;-76
2023/02/11 06:17:16;;;;;;;19.17;9.38;;;0.80;99.90;;;;;;4837877;29;20514;-75
2023/02/11 06:20:29;;;;;;;27.42;9.98;;;0.80;99.90;;;;;;4827202;29;20074;-76
2023/02/11 06:23:04;;;;;;;13.57;7.57;;;0.90;99.90;;;;;;4891446;29;20050;-76
2023/02/11 06:25:49;;;;;;;33.55;11.30;;;0.90;99.90;;;;;;4955852;28;20070;-76
2023/02/11 06:28:18;;;;;;;13.20;7.95;;;0.90;99.90;;;;;;4971584;28;20128;-76
2023/02/11 06:31:11;;;;;;;18.52;9.05;;;0.90;99.90;;;;;;5021517;28;20366;-76
2023/02/11 06:33:40;;;;;;;25.92;11.30;;;0.90;99.90;;;;;;4990922;28;20069;-76
2023/02/11 06:37:41;;;;;;;20.73;10.15;;;0.80;99.90;;;;;;5040038;28;20496;-76
2023/02/11 06:40:08;;;;;;;31.27;10.07;;;0.80;99.90;;;;;;5003774;28;20060;-76
2023/02/11 06:43:01;;;;;;;15.15;8.60;;;0.80;99.90;;;;;;5035653;28;20091;-76
2023/02/11 06:46:06;;;;;;;21.05;9.18;;;0.70;99.90;;;;;;5036383;28;20037;-76
2023/02/11 06:49:29;;;;;;;21.70;10.98;;;0.70;99.90;;;;;;4987278;28;20092;-76
2023/02/11 06:52:31;;;;;;;18.10;8.00;;;0.70;99.90;;;;;;5017156;28;20049;-76
2023/02/11 06:55:06;;;;;;;27.23;9.38;;;0.60;99.90;;;;;;4991721;28;20037;-76
2023/02/11 06:57:35;;;;;;;17.23;8.88;;;0.60;99.90;;;;;;5019345;28;20028;-76
2023/02/11 07:00:04;;;;;;;30.83;10.07;;;0.60;99.90;;;;;;5037765;28;20051;-75
2023/02/11 07:06:40;;;;;;;17.85;8.95;;;0.60;99.90;;;;;;4915760;29;20044;-76
2023/02/11 07:09:51;;;;;;;23.98;10.00;;;0.60;99.90;;;;;;4932699;29;20047;-76
2023/02/11 07:12:55;;;;;;;23.13;12.02;;;0.70;99.90;;;;;;4900358;29;20036;-76
2023/02/11 07:19:04;;;;;;;23.30;9.57;;;0.70;99.90;;;;;;4868821;29;20053;-75
2023/02/11 07:22:08;;;;;;;24.88;9.77;;;0.70;99.90;;;;;;4875735;29;20841;-75
2023/02/11 07:24:43;;;;;;;13.93;8.10;;;0.60;99.90;;;;;;4928295;29;20135;-75
2023/02/11 07:27:18;;;;;;;31.90;11.60;;;0.70;99.90;;;;;;4938682;29;20092;-75
2023/02/11 07:30:03;;;;;;;26.95;9.80;;;0.80;99.90;;;;;;4936115;29;20126;-75
2023/02/11 07:32:53;;;;;;;20.40;9.70;;;0.80;99.90;;;;;;4942944;29;20039;-75
2023/02/11 07:35:42;;;;;;;21.15;8.55;;;0.80;99.90;;;;;;4927656;29;20681;-75
2023/02/11 07:38:16;;;;;;;46.30;12.35;;;0.80;99.90;;;;;;4914869;29;20630;-76
2023/02/11 07:40:51;;;;;;;16.52;8.68;;;0.90;99.90;;;;;;5035869;28;20128;-76
2023/02/11 07:43:26;;;;;;;18.23;9.95;;;0.80;99.90;;;;;;5049714;28;20090;-76
2023/02/11 07:47:05;;;;;;;22.80;8.32;;;0.80;99.90;;;;;;5038506;28;20068;-75
2023/02/11 07:49:37;;;;;;;18.88;8.55;;;0.80;99.90;;;;;;4950051;28;20047;-76
2023/02/11 07:52:21;;;;;;;12.52;8.80;;;0.90;99.90;;;;;;4957145;28;20043;-76
2023/02/11 07:55:14;;;;;;;29.85;9.82;;;0.90;99.90;;;;;;4955479;28;20043;-76
2023/02/11 07:57:49;;;;;;;21.00;10.93;;;0.90;99.90;;;;;;4962209;28;20038;-75
2023/02/11 08:00:21;;;;;;;20.80;9.32;;;1.00;99.90;;;;;;4956904;28;20054;-75
2023/02/11 08:02:49;;;;;;;19.73;11.10;;;1.00;99.90;;;;;;4959597;28;20395;-76
2023/02/11 08:05:46;;;;;;;22.20;8.38;;;1.00;99.90;;;;;;4956772;28;20039;-76
2023/02/11 08:08:12;;;;;;;27.80;10.23;;;1.00;99.90;;;;;;4967402;28;20716;-76
2023/02/11 08:10:37;;;;;;;18.67;8.32;;;1.10;99.90;;;;;;4959731;28;20036;-76
2023/02/11 08:13:46;;;;;;;22.80;9.55;;;1.20;99.90;;;;;;4966508;28;20503;-76
2023/02/11 08:16:42;;;;;;;18.50;11.20;;;1.30;99.90;;;;;;4920664;29;20067;-76
2023/02/11 08:19:42;;;;;;;23.80;10.20;;;1.40;99.90;;;;;;4917488;29;20044;-76
2023/02/11 08:22:20;;;;;;;17.67;10.00;;;1.50;99.90;;;;;;4922740;29;20043;-76
2023/02/11 08:24:57;;;;;;;17.88;8.93;;;1.70;99.90;;;;;;4928834;29;20518;-76
2023/02/11 08:27:29;;;;;;;22.45;8.90;;;1.80;99.90;;;;;;4963841;28;20101;-76
2023/02/11 08:30:13;;;;;;;30.65;11.23;;;1.90;99.90;;;;;;4968448;28;20043;-76
2023/02/11 08:32:38;;;;;;;18.85;9.02;;;2.00;99.90;;;;;;4982601;28;20031;-76
2023/02/11 08:35:06;;;;;;;24.70;8.95;;;2.10;99.90;;;;;;4984256;28;20117;-76
2023/02/11 08:37:41;;;;;;;33.53;11.25;;;2.10;99.90;;;;;;4985075;28;20049;-76
2023/02/11 08:40:31;;;;;;;15.93;8.73;;;2.10;99.90;;;;;;4970236;28;20621;-74
2023/02/11 08:44:10;;;;;;;22.05;9.82;;;2.20;99.90;;;;;;4988314;28;20509;-74
2023/02/11 08:47:14;;;;;;;28.23;10.80;;;2.40;99.90;;;;;;4833928;29;20053;-75
2023/02/11 08:49:46;;;;;;;34.05;11.45;;;2.50;99.90;;;;;;4802813;29;20107;-75
2023/02/11 08:52:14;;;;;;;22.25;10.23;;;2.60;99.90;;;;;;4802940;29;20134;-74
2023/02/11 08:55:25;;;;;;;28.65;10.55;;;2.70;99.90;;;;;;4844967;29;20125;-75
2023/02/11 08:57:54;;;;;;;24.67;9.85;;;2.80;99.90;;;;;;4839191;29;20058;-75
2023/02/11 09:00:44;;;;;;;20.67;9.65;;;2.80;99.90;;;;;;4841964;29;20052;-75
2023/02/11 09:03:28;;;;;;;34.20;8.70;;;2.90;99.90;;;;;;4857970;29;20058;-75
2023/02/11 09:06:12;;;;;;;23.13;9.23;;;2.90;99.90;;;;;;4857608;29;20037;-76
2023/02/11 09:09:00;;;;;;;30.42;11.60;;;2.90;99.90;;;;;;4841578;29;20120;-75
2023/02/11 09:14:50;;;;;;;18.75;8.05;;;3.10;99.90;;;;;;4856934;29;20040;-76
2023/02/11 09:17:24;;;;;;;45.63;13.02;;;3.30;99.90;;;;;;4847479;29;20049;-75
2023/02/11 09:19:53;;;;;;;16.55;8.82;;;3.40;99.90;;;;;;4856944;29;20041;-76
2023/02/11 09:22:18;;;;;;;17.23;9.35;;;3.60;99.90;;;;;;4869505;28;20046;-75
2023/02/11 09:24:56;;;;;;;23.98;9.73;;;3.70;99.90;;;;;;5022900;28;20090;-75
2023/02/11 09:27:22;;;;;;;21.88;9.55;;;3.90;99.90;;;;;;5040654;28;20028;-76
2023/02/11 09:33:19;;;;;;;20.70;6.88;;;4.20;99.90;;;;;;4968312;28;20471;-76
2023/02/11 09:35:48;;;;;;;23.60;9.23;;;4.40;99.90;;;;;;4959558;28;20026;-76
2023/02/11 09:38:13;;;;;;;21.83;10.38;;;4.60;99.90;;;;;;4951894;28;20496;-76
2023/02/11 09:40:45;;;;;;;20.65;9.40;;;4.70;99.90;;;;;;4959565;28;20079;-75
2023/02/11 09:46:23;;;;;;;16.63;7.07;;;5.10;99.90;;;;;;4925913;29;20052;-75
2023/02/11 09:48:55;;;;;;;13.15;7.40;;;5.30;99.90;;;;;;4974340;28;20032;-76
2023/02/11 09:52:02;;;;;;;27.58;7.75;;;5.50;99.90;;;;;;4960734;28;20486;-76
2023/02/11 09:55:07;;;;;;;24.02;8.43;;;5.80;99.90;;;;;;4959263;28;20043;-76
2023/02/11 09:57:41;;;;;;;19.40;7.88;;;6.00;99.90;;;;;;4914816;29;20051;-76
2023/02/11 10:00:56;;;;;;;22.92;9.05;;;6.10;99.90;;;;;;4924111;29;20088;-76
2023/02/11 10:04:04;;;;;;;21.95;8.43;;;6.10;99.90;;;;;;4894886;29;20037;-76
2023/02/11 10:07:00;;;;;;;17.23;8.20;;;6.50;99.90;;;;;;4892607;29;20119;-76
2023/02/11 10:10:25;;;;;;;18.17;9.27;;;6.70;99.90;;;;;;4942483;28;20043;-75
2023/02/11 10:13:55;;;;;;;13.73;6.20;;;6.70;99.90;;;;;;4969056;28;20043;-76
2023/02/11 10:17:37;;;;;;;24.88;7.32;;;6.40;99.90;;;;;;4950945;29;20164;-76
2023/02/11 10:21:09;;;;;;;15.38;7.45;;;6.70;99.90;;;;;;4976159;28;20068;-76
2023/02/11 10:23:59;;;;;;;13.00;6.13;;;6.40;99.90;;;;;;4921901;29;20483;-76
2023/02/11 10:27:40;;;;;;;26.13;8.48;;;6.30;99.90;;;;;;4912633;29;20503;-76
2023/02/11 10:31:23;;;;;;;14.68;6.63;;;6.30;99.90;;;;;;4873183;29;20083;-76
2023/02/11 10:34:21;;;;;;;17.35;6.68;;;6.30;99.90;;;;;;4842870;29;20041;-76
2023/02/11 10:37:02;;;;;;;17.73;9.50;;;6.20;99.90;;;;;;4818926;29;20579;-76
2023/02/11 10:39:43;;;;;;;;;;;6.00;99.90;;;;;;4832403;29;20045;-76
2023/02/11 10:42:48;;;;;;;15.27;8.20;;;6.40;99.90;;;;;;4876506;29;19919;-75
2023/02/11 10:45:37;;;;;;;22.48;7.70;;;6.20;99.90;;;;;;4885377;29;20466;-76
2023/02/11 10:48:51;;;;;;;16.42;7.13;;;6.20;99.90;;;;;;4872987;29;20121;-76
2023/02/11 10:51:50;;;;;;;18.88;8.25;;;6.50;99.90;;;;;;4944998;23;20040;-71
2023/02/11 10:55:04;;;;;;;14.80;6.38;;;6.50;99.90;;;;;;5032782;28;20056;-71
2023/02/11 10:58:00;;;;;;;16.38;8.40;;;6.40;99.90;;;;;;5056812;28;20036;-71
2023/02/11 11:00:31;;;;;;;28.23;9.13;;;7.40;99.90;;;;;;4975592;28;20038;-71
2023/02/11 11:03:47;;;;;;;22.77;8.95;;;7.40;99.90;;;;;;4950108;28;20043;-71
2023/02/11 11:06:37;;;;;;;14.60;8.32;;;7.20;99.90;;;;;;4951149;28;20046;-69
2023/02/11 11:09:37;;;;;;;20.70;8.35;;;8.20;99.90;;;;;;4961500;28;20121;-71
2023/02/11 11:16:31;;;;;;;18.48;8.18;;;9.30;99.90;;;;;;4951827;28;20035;-71
2023/02/11 11:19:30;;;;;;;20.27;7.72;;;9.70;99.40;;;;;;4954420;28;20645;-71
2023/02/11 11:21:56;;;;;;;13.95;6.85;;;8.50;99.90;;;;;;4961121;28;20034;-72
2023/02/11 11:25:28;;;;;;;13.30;6.80;;;8.80;99.90;;;;;;4933504;28;20042;-71
2023/02/11 11:27:58;;;;;;;15.68;6.82;;;8.80;99.90;;;;;;4922996;29;20046;-71
2023/02/11 11:31:18;;;;;;;23.00;9.07;;;9.30;99.90;;;;;;4927808;29;20067;-71
2023/02/11 11:33:57;;;;;;;21.23;8.40;;;9.20;99.90;;;;;;4895785;29;20039;-70
2023/02/11 11:37:13;;;;;;;19.50;8.05;;;9.20;99.90;;;;;;4927791;28;20039;-70
2023/02/11 11:40:41;;;;;;;20.45;8.02;;;10.00;99.90;;;;;;4957761;28;20050;-70
2023/02/11 11:43:19;;;;;;;23.00;7.82;;;9.60;99.90;;;;;;4929424;28;20617;-70
2023/02/11 11:46:05;;;;;;;17.52;7.53;;;11.80;99.30;;;;;;4936843;28;20459;-71
2023/02/11 11:52:50;;;;;;;24.25;8.35;;;10.80;97.90;;;;;;4861854;29;20553;-71
2023/02/11 11:55:45;;;;;;;15.93;6.85;;;12.40;96.90;;;;;;4924341;29;20166;-70
2023/02/11 11:58:31;;;;;;;19.50;7.80;;;11.90;95.50;;;;;;4941576;28;20049;-70
2023/02/11 12:01:49;;;;;;;18.20;8.20;;;11.30;98.40;;;;;;4944970;28;20586;-70
2023/02/11 12:05:23;;;;;;;21.17;8.68;;;11.00;97.60;;;;;;5006598;28;20049;-71
2023/02/11 12:08:22;;;;;;;18.77;8.35;;;10.80;99.10;;;;;;5015301;28;20037;-71
2023/02/11 12:12:02;;;;;;;16.08;8.18;;;10.50;99.60;;;;;;5016837;28;20026;-71
2023/02/11 12:18:57;;;;;;;15.02;7.40;;;11.40;97.60;;;;;;4924274;29;20031;-71
2023/02/11 12:22:00;;;;;;;22.33;8.23;;;12.50;96.60;;;;;;4888083;29;20052;-71
2023/02/11 12:25:18;;;;;;;27.85;9.77;;;11.90;96.50;;;;;;4897262;29;20060;-71
2023/02/11 12:32:23;;;;;;;20.35;7.38;;;13.90;94.30;;;;;;4910435;29;20047;-71
2023/02/11 12:35:38;;;;;;;21.90;8.65;;;11.10;97.20;;;;;;4908577;29;20036;-71
2023/02/11 12:39:08;;;;;;;15.15;7.78;;;10.20;99.90;;;;;;4909953;29;20555;-71
2023/02/11 12:46:14;;;;;;;17.13;6.38;;;9.40;99.90;;;;;;4836353;29;20266;-71
2023/02/11 12:49:29;;;;;;;16.30;7.80;;;10.20;99.90;;;;;;4828298;29;20099;-71
2023/02/11 12:56:45;;;;;;;24.30;7.63;;;9.90;99.90;;;;;;4784978;29;20429;-71
2023/02/11 13:00:06;;;;;;;21.30;7.65;;;9.90;99.90;;;;;;4775930;29;20130;-71
2023/02/11 13:07:34;;;;;;;;;;;;;;;;;;;;;
2023/02/11 13:10:33;;;;;;;15.32;6.38;;;9.90;99.90;;;;;;4741850;30;20055;-71
2023/02/11 13:20:29;;;;;;;13.85;5.63;;;9.70;99.90;;;;;;4792610;29;20065;-71
2023/02/11 13:23:31;;;;;;;14.52;6.05;;;9.70;99.90;;;;;;4894393;29;20043;-70
2023/02/11 13:26:39;;;;;;;13.50;5.20;;;9.70;99.90;;;;;;5015541;28;20032;-71
2023/02/11 13:29:05;;;;;;;12.18;5.65;;;9.70;99.90;;;;;;5025537;28;20049;-71
2023/02/11 13:31:31;;;;;;;12.50;5.68;;;9.50;99.90;;;;;;5024591;28;20033;-71
2023/02/11 13:35:09;;;;;;;18.98;5.43;;;9.50;99.90;;;;;;5018142;28;20033;-71
2023/02/11 13:37:58;;;;;;;12.80;5.68;;;9.40;99.90;;;;;;5018673;28;20536;-72
2023/02/11 13:40:39;;;;;;;17.40;6.55;;;9.60;99.90;;;;;;5014002;28;20037;-72
2023/02/11 13:43:34;;;;;;;12.30;6.35;;;9.50;99.90;;;;;;5034128;28;20025;-71
2023/02/11 13:46:53;;;;;;;13.23;5.65;;;9.40;99.90;;;;;;5025243;28;20037;-71
2023/02/11 13:49:56;;;;;;;16.50;5.57;;;9.40;99.90;;;;;;5022325;28;20497;-71
2023/02/11 13:52:37;;;;;;;13.38;5.82;;;9.50;99.90;;;;;;5013926;28;20045;-71
2023/02/11 13:56:06;;;;;;;10.57;4.85;;;9.50;99.90;;;;;;5038718;28;20084;-71
2023/02/11 13:58:59;;;;;;;16.60;5.38;;;9.10;99.90;;;;;;5004436;28;20118;-71
2023/02/11 14:08:56;;;;;;;13.40;6.32;;;9.00;99.90;;;;;;5021890;28;20068;-71
2023/02/11 14:09:16;;;;;;;10.40;5.57;;;8.90;99.90;;;;;;5030601;28;20504;-71
2023/02/11 14:15:03;;;;;;;13.82;5.03;;;9.00;99.90;;;;;;4903086;29;20078;-70
2023/02/11 14:17:41;;;;;;;19.52;5.80;;;8.80;99.90;;;;;;4915509;29;20043;-71
2023/02/11 14:25:38;;;;;;;10.13;4.30;;;8.80;99.90;;;;;;4846961;29;20049;-71
2023/02/11 14:32:49;;;;;;;12.25;4.07;;;8.00;99.90;;;;;;4869493;29;20127;-71
2023/02/11 14:36:24;;;;;;;10.75;3.78;;;8.00;99.90;;;;;;4888602;29;20052;-71
2023/02/11 14:39:26;;;;;;;10.93;4.10;;;7.80;99.90;;;;;;4891217;29;20036;-71
2023/02/11 14:42:53;;;;;;;7.05;3.65;;;7.80;99.90;;;;;;4893720;29;20061;-71
2023/02/11 14:45:35;;;;;;;10.35;3.60;;;7.80;99.90;;;;;;4832634;29;20038;-71
2023/02/11 14:48:31;;;;;;;11.80;3.92;;;7.90;99.90;;;;;;4827753;29;20061;-71
2023/02/11 14:51:09;;;;;;;11.45;4.38;;;7.90;99.90;;;;;;4860903;29;20041;-70
2023/02/11 14:56:43;;;;;;;13.15;4.80;;;7.70;99.90;;;;;;4862827;29;20465;-71
2023/02/11 14:59:24;;;;;;;8.93;3.90;;;7.80;99.90;;;;;;4858000;29;20079;-71
2023/02/11 15:02:25;;;;;;;14.85;4.35;;;7.90;99.90;;;;;;4876704;29;20037;-71
2023/02/11 15:09:05;;;;;;;5.95;2.92;;;8.00;99.90;;;;;;4848459;29;20340;-72
2023/02/11 15:14:59;;;;;;;11.25;3.97;;;8.00;99.90;;;;;;4879271;29;20104;-71
2023/02/11 15:18:42;;;;;;;8.32;4.40;;;8.00;99.90;;;;;;4850406;29;20048;-72
2023/02/11 15:21:08;;;;;;;9.23;3.92;;;8.10;99.90;;;;;;4860290;29;20084;-71
2023/02/11 15:23:35;;;;;;;11.18;4.65;;;8.10;99.90;;;;;;4884976;29;20040;-71
2023/02/11 15:26:26;;;;;;;16.90;6.43;;;8.10;99.90;;;;;;4896679;29;20572;-71
2023/02/11 15:29:16;;;;;;;5.97;3.20;;;8.20;99.90;;;;;;4906205;29;20036;-71
2023/02/11 15:31:42;;;;;;;6.13;2.97;;;8.10;99.90;;;;;;4909104;29;20048;-71
2023/02/11 15:34:08;;;;;;;12.20;4.68;;;7.90;99.90;;;;;;4903863;29;20080;-70
2023/02/11 15:36:40;;;;;;;13.55;4.13;;;7.80;99.90;;;;;;4912050;29;20046;-71
2023/02/11 15:39:42;;;;;;;12.10;3.42;;;7.80;99.90;;;;;;4914229;29;20055;-72
2023/02/11 15:42:32;;;;;;;15.40;5.30;;;7.70;99.90;;;;;;4920698;29;20532;-72
2023/02/11 15:45:46;;;;;;;10.32;4.35;;;7.80;99.90;;;;;;4930949;28;20847;-71
2023/02/11 15:48:43;;;;;;;14.85;5.05;;;8.00;99.90;;;;;;5027841;28;20055;-71
2023/02/11 15:51:36;;;;;;;11.00;3.92;;;7.90;99.90;;;;;;5052512;28;20099;-72
2023/02/11 15:54:37;;;;;;;10.20;4.32;;;7.90;99.90;;;;;;5021462;28;20040;-71
2023/02/11 15:57:22;;;;;;;;;;;7.90;99.90;;;;;;5012799;28;20458;-72
2023/02/11 15:59:57;;;;;;;31.77;4.88;;;7.90;99.90;;;;;;5038373;28;20005;-71
2023/02/11 16:03:42;;;;;;;13.73;6.57;;;7.90;99.90;;;;;;5020408;28;20033;-71
2023/02/11 16:06:47;;;;;;;19.27;6.45;;;7.70;99.90;;;;;;4905100;28;20154;-71
2023/02/11 16:13:12;;;;;;;15.43;6.22;;;7.50;99.90;;;;;;4805459;29;20058;-71
2023/02/11 16:19:04;;;;;;;15.48;6.57;;;7.50;99.90;;;;;;4811231;29;20065;-71
2023/02/11 16:22:37;;;;;;;13.85;6.65;;;7.50;99.90;;;;;;4802663;29;20054;-71
2023/02/11 16:25:30;;;;;;;14.88;5.78;;;7.50;99.90;;;;;;4814946;29;20042;-71
2023/02/11 16:29:37;;;;;;;11.18;5.35;;;7.40;99.90;;;;;;4803068;29;20085;-71
2023/02/11 16:32:29;;;;;;;15.48;6.45;;;7.50;99.90;;;;;;4797128;29;20499;-71
2023/02/11 16:35:00;;;;;;;19.27;6.88;;;7.40;99.90;;;;;;4856237;29;20183;-70
2023/02/11 16:37:56;;;;;;;14.93;6.00;;;7.50;99.90;;;;;;4855270;29;20045;-71
2023/02/11 16:40:28;;;;;;;31.30;6.82;;;7.50;99.90;;;;;;4838709;29;20050;-72
2023/02/11 16:43:00;;;;;;;15.02;6.18;;;7.60;99.90;;;;;;4878375;29;20149;-72
2023/02/11 16:45:52;;;;;;;20.83;7.45;;;7.60;99.90;;;;;;4882170;29;20072;-71
2023/02/11 16:48:21;;;;;;;25.08;6.20;;;7.60;99.90;;;;;;4894203;29;20445;-70
2023/02/11 16:53:28;;;;;;;36.70;7.35;;;7.60;99.90;;;;;;5025112;28;20409;-71
2023/02/11 16:55:54;;;;;;;18.98;7.65;;;7.60;99.90;;;;;;5032547;28;20036;-71
2023/02/11 16:59:26;;;;;;;18.52;6.57;;;7.70;99.90;;;;;;5021640;28;20021;-71
2023/02/11 17:01:58;;;;;;;14.63;6.60;;;7.70;99.90;;;;;;5001781;28;20088;-72
2023/02/11 17:04:32;;;;;;;17.15;6.32;;;7.50;99.90;;;;;;5009129;28;20026;-72
2023/02/11 17:07:13;;;;;;;14.32;5.75;;;7.40;99.90;;;;;;5009797;28;20166;-71
2023/02/11 17:09:45;;;;;;;15.73;7.75;;;7.30;99.90;;;;;;5010263;28;20030;-71